sensor_id;sensor_type;location;lat;lon;timestamp;P1;durP1;ratioP1;P2;durP2;ratioP2
21274;SDS011;36472;52.170;20.884;2023-05-07T00:00:06;4.72;;;3.90;;
21274;SDS011;36472;52.170;20.884;2023-05-07T00:02:56;5.00;;;3.65;;
21274;SDS011;36472;52.170;20.884;2023-05-07T00:05:26;6.50;;;4.55;;
21274;SDS011;36472;52.170;20.884;2023-05-07T00:07:55;5.15;;;3.85;;
21274;SDS011;36472;52.170;20.884;2023-05-07T00:10:25;5.18;;;4.32;;
21274;SDS011;36472;52.170;20.884;2023-05-07T00:12:54;8.10;;;4.28;;
21274;SDS011;36472;52.170;20.884;2023-05-07T00:15:23;9.60;;;4.22;;
21274;SDS011;36472;52.170;20.884;2023-05-07T00:17:52;5.07;;;4.35;;
21274;SDS011;36472;52.170;20.884;2023-05-07T00:20:21;5.57;;;4.00;;
21274;SDS011;36472;52.170;20.884;2023-05-07T00:22:51;5.63;;;4.25;;
21274;SDS011;36472;52.170;20.884;2023-05-07T00:25:20;7.38;;;4.15;;
21274;SDS011;36472;52.170;20.884;2023-05-07T00:27:49;6.82;;;4.15;;
21274;SDS011;36472;52.170;20.884;2023-05-07T00:30:18;6.70;;;4.40;;
21274;SDS011;36472;52.170;20.884;2023-05-07T00:32:47;5.70;;;4.00;;
21274;SDS011;36472;52.170;20.884;2023-05-07T00:35:17;5.38;;;3.72;;
21274;SDS011;36472;52.170;20.884;2023-05-07T00:37:46;5.97;;;3.72;;
21274;SDS011;36472;52.170;20.884;2023-05-07T00:40:18;4.75;;;4.03;;
21274;SDS011;36472;52.170;20.884;2023-05-07T00:42:47;5.03;;;3.58;;
21274;SDS011;36472;52.170;20.884;2023-05-07T00:45:16;5.32;;;4.00;;
21274;SDS011;36472;52.170;20.884;2023-05-07T00:47:46;4.30;;;3.42;;
21274;SDS011;36472;52.170;20.884;2023-05-07T00:50:15;5.70;;;3.78;;
21274;SDS011;36472;52.170;20.884;2023-05-07T00:52:45;4.57;;;3.88;;
21274;SDS011;36472;52.170;20.884;2023-05-07T00:55:15;4.80;;;4.10;;
21274;SDS011;36472;52.170;20.884;2023-05-07T00:57:45;3.47;;;3.17;;
21274;SDS011;36472;52.170;20.884;2023-05-07T01:00:15;4.40;;;3.50;;
21274;SDS011;36472;52.170;20.884;2023-05-07T01:02:45;4.10;;;3.70;;
21274;SDS011;36472;52.170;20.884;2023-05-07T01:05:15;5.57;;;3.40;;
21274;SDS011;36472;52.170;20.884;2023-05-07T01:07:47;4.57;;;3.67;;
21274;SDS011;36472;52.170;20.884;2023-05-07T01:10:18;4.18;;;3.42;;
21274;SDS011;36472;52.170;20.884;2023-05-07T01:12:49;5.57;;;3.17;;
21274;SDS011;36472;52.170;20.884;2023-05-07T01:15:19;4.00;;;3.50;;
21274;SDS011;36472;52.170;20.884;2023-05-07T01:17:48;4.47;;;3.75;;
21274;SDS011;36472;52.170;20.884;2023-05-07T01:20:24;5.68;;;3.72;;
21274;SDS011;36472;52.170;20.884;2023-05-07T01:22:56;5.05;;;3.60;;
21274;SDS011;36472;52.170;20.884;2023-05-07T01:25:26;3.75;;;3.25;;
21274;SDS011;36472;52.170;20.884;2023-05-07T01:27:58;4.40;;;3.20;;
21274;SDS011;36472;52.170;20.884;2023-05-07T01:30:31;4.88;;;3.60;;
21274;SDS011;36472;52.170;20.884;2023-05-07T01:33:07;4.43;;;3.25;;
21274;SDS011;36472;52.170;20.884;2023-05-07T01:35:43;4.80;;;3.47;;
21274;SDS011;36472;52.170;20.884;2023-05-07T01:38:16;3.92;;;3.00;;
21274;SDS011;36472;52.170;20.884;2023-05-07T01:40:46;5.07;;;3.10;;
21274;SDS011;36472;52.170;20.884;2023-05-07T01:43:16;6.57;;;3.28;;
21274;SDS011;36472;52.170;20.884;2023-05-07T01:45:45;3.30;;;2.92;;
21274;SDS011;36472;52.170;20.884;2023-05-07T01:48:15;4.50;;;3.00;;
21274;SDS011;36472;52.170;20.884;2023-05-07T01:50:45;4.75;;;3.08;;
21274;SDS011;36472;52.170;20.884;2023-05-07T01:53:17;4.25;;;3.50;;
21274;SDS011;36472;52.170;20.884;2023-05-07T01:55:46;5.43;;;3.40;;
21274;SDS011;36472;52.170;20.884;2023-05-07T01:58:15;4.65;;;3.28;;
21274;SDS011;36472;52.170;20.884;2023-05-07T02:00:44;4.38;;;3.30;;
21274;SDS011;36472;52.170;20.884;2023-05-07T02:03:13;4.50;;;2.90;;
21274;SDS011;36472;52.170;20.884;2023-05-07T02:05:54;3.70;;;3.00;;
21274;SDS011;36472;52.170;20.884;2023-05-07T02:08:42;3.53;;;3.00;;
21274;SDS011;36472;52.170;20.884;2023-05-07T02:11:13;6.90;;;3.30;;
21274;SDS011;36472;52.170;20.884;2023-05-07T02:13:42;4.75;;;2.95;;
21274;SDS011;36472;52.170;20.884;2023-05-07T02:16:11;4.25;;;3.50;;
21274;SDS011;36472;52.170;20.884;2023-05-07T02:18:41;4.72;;;3.38;;
21274;SDS011;36472;52.170;20.884;2023-05-07T02:21:10;5.35;;;3.40;;
21274;SDS011;36472;52.170;20.884;2023-05-07T02:23:38;4.32;;;2.78;;
21274;SDS011;36472;52.170;20.884;2023-05-07T02:26:10;4.35;;;2.92;;
21274;SDS011;36472;52.170;20.884;2023-05-07T02:28:38;4.10;;;2.83;;
21274;SDS011;36472;52.170;20.884;2023-05-07T02:31:07;5.75;;;3.58;;
21274;SDS011;36472;52.170;20.884;2023-05-07T02:33:36;3.22;;;2.63;;
21274;SDS011;36472;52.170;20.884;2023-05-07T02:36:08;4.20;;;3.05;;
21274;SDS011;36472;52.170;20.884;2023-05-07T02:39:01;4.00;;;3.20;;
21274;SDS011;36472;52.170;20.884;2023-05-07T02:41:31;3.13;;;2.83;;
21274;SDS011;36472;52.170;20.884;2023-05-07T02:44:00;3.60;;;2.90;;
21274;SDS011;36472;52.170;20.884;2023-05-07T02:46:30;3.95;;;2.92;;
21274;SDS011;36472;52.170;20.884;2023-05-07T02:49:03;4.10;;;3.67;;
21274;SDS011;36472;52.170;20.884;2023-05-07T02:51:33;3.17;;;2.67;;
21274;SDS011;36472;52.170;20.884;2023-05-07T02:54:06;4.60;;;2.85;;
21274;SDS011;36472;52.170;20.884;2023-05-07T02:56:36;3.65;;;3.03;;
21274;SDS011;36472;52.170;20.884;2023-05-07T02:59:05;2.85;;;2.55;;
21274;SDS011;36472;52.170;20.884;2023-05-07T03:01:38;4.85;;;3.40;;
21274;SDS011;36472;52.170;20.884;2023-05-07T03:04:08;3.25;;;2.95;;
21274;SDS011;36472;52.170;20.884;2023-05-07T03:06:38;2.60;;;2.40;;
21274;SDS011;36472;52.170;20.884;2023-05-07T03:09:07;2.83;;;2.60;;
21274;SDS011;36472;52.170;20.884;2023-05-07T03:11:37;4.22;;;3.28;;
21274;SDS011;36472;52.170;20.884;2023-05-07T03:14:06;3.95;;;3.28;;
21274;SDS011;36472;52.170;20.884;2023-05-07T03:16:35;3.33;;;2.55;;
21274;SDS011;36472;52.170;20.884;2023-05-07T03:19:04;5.18;;;2.90;;
21274;SDS011;36472;52.170;20.884;2023-05-07T03:21:33;2.97;;;2.67;;
21274;SDS011;36472;52.170;20.884;2023-05-07T03:24:02;2.85;;;2.60;;
21274;SDS011;36472;52.170;20.884;2023-05-07T03:26:31;3.38;;;2.78;;
21274;SDS011;36472;52.170;20.884;2023-05-07T03:29:01;4.35;;;2.80;;
21274;SDS011;36472;52.170;20.884;2023-05-07T03:31:31;5.38;;;2.70;;
21274;SDS011;36472;52.170;20.884;2023-05-07T03:34:00;2.83;;;2.60;;
21274;SDS011;36472;52.170;20.884;2023-05-07T03:36:30;3.13;;;2.60;;
21274;SDS011;36472;52.170;20.884;2023-05-07T03:38:58;2.90;;;2.45;;
21274;SDS011;36472;52.170;20.884;2023-05-07T03:41:35;3.80;;;2.78;;
21274;SDS011;36472;52.170;20.884;2023-05-07T03:44:05;3.38;;;2.45;;
21274;SDS011;36472;52.170;20.884;2023-05-07T03:46:36;2.63;;;2.42;;
21274;SDS011;36472;52.170;20.884;2023-05-07T03:49:08;3.05;;;2.72;;
21274;SDS011;36472;52.170;20.884;2023-05-07T03:51:38;3.53;;;3.15;;
21274;SDS011;36472;52.170;20.884;2023-05-07T03:54:07;3.00;;;2.80;;
21274;SDS011;36472;52.170;20.884;2023-05-07T03:56:42;3.25;;;2.80;;
21274;SDS011;36472;52.170;20.884;2023-05-07T03:59:12;7.10;;;2.63;;
21274;SDS011;36472;52.170;20.884;2023-05-07T04:01:44;4.05;;;2.60;;
21274;SDS011;36472;52.170;20.884;2023-05-07T04:04:16;3.47;;;3.05;;
21274;SDS011;36472;52.170;20.884;2023-05-07T04:06:45;3.42;;;2.72;;
21274;SDS011;36472;52.170;20.884;2023-05-07T04:09:15;3.22;;;2.88;;
21274;SDS011;36472;52.170;20.884;2023-05-07T04:11:45;3.28;;;2.63;;
21274;SDS011;36472;52.170;20.884;2023-05-07T04:14:15;3.50;;;3.10;;
21274;SDS011;36472;52.170;20.884;2023-05-07T04:16:45;5.18;;;2.80;;
21274;SDS011;36472;52.170;20.884;2023-05-07T04:19:14;3.50;;;3.10;;
21274;SDS011;36472;52.170;20.884;2023-05-07T04:21:44;3.35;;;2.95;;
21274;SDS011;36472;52.170;20.884;2023-05-07T04:24:13;2.72;;;2.53;;
21274;SDS011;36472;52.170;20.884;2023-05-07T04:26:44;3.30;;;2.90;;
21274;SDS011;36472;52.170;20.884;2023-05-07T04:29:13;3.47;;;2.70;;
21274;SDS011;36472;52.170;20.884;2023-05-07T04:31:43;3.55;;;2.80;;
21274;SDS011;36472;52.170;20.884;2023-05-07T04:34:12;3.70;;;2.70;;
21274;SDS011;36472;52.170;20.884;2023-05-07T04:36:42;5.97;;;2.90;;
21274;SDS011;36472;52.170;20.884;2023-05-07T04:39:12;3.42;;;2.60;;
21274;SDS011;36472;52.170;20.884;2023-05-07T04:41:44;2.88;;;2.58;;
21274;SDS011;36472;52.170;20.884;2023-05-07T04:44:13;3.05;;;2.70;;
21274;SDS011;36472;52.170;20.884;2023-05-07T04:46:44;2.45;;;2.25;;
21274;SDS011;36472;52.170;20.884;2023-05-07T04:49:13;4.35;;;2.78;;
21274;SDS011;36472;52.170;20.884;2023-05-07T04:51:43;3.00;;;2.50;;
21274;SDS011;36472;52.170;20.884;2023-05-07T04:54:15;2.97;;;2.67;;
21274;SDS011;36472;52.170;20.884;2023-05-07T04:56:44;3.67;;;2.47;;
21274;SDS011;36472;52.170;20.884;2023-05-07T04:59:13;3.70;;;2.60;;
21274;SDS011;36472;52.170;20.884;2023-05-07T05:01:44;3.30;;;2.33;;
21274;SDS011;36472;52.170;20.884;2023-05-07T05:04:13;2.63;;;2.33;;
21274;SDS011;36472;52.170;20.884;2023-05-07T05:06:42;2.58;;;2.28;;
21274;SDS011;36472;52.170;20.884;2023-05-07T05:09:12;2.67;;;2.47;;
21274;SDS011;36472;52.170;20.884;2023-05-07T05:11:43;4.25;;;2.40;;
21274;SDS011;36472;52.170;20.884;2023-05-07T05:14:14;3.42;;;2.50;;
21274;SDS011;36472;52.170;20.884;2023-05-07T05:16:44;3.63;;;2.67;;
21274;SDS011;36472;52.170;20.884;2023-05-07T05:19:14;3.35;;;2.28;;
21274;SDS011;36472;52.170;20.884;2023-05-07T05:21:44;2.55;;;2.35;;
21274;SDS011;36472;52.170;20.884;2023-05-07T05:24:13;2.75;;;2.38;;
21274;SDS011;36472;52.170;20.884;2023-05-07T05:26:42;2.70;;;2.42;;
21274;SDS011;36472;52.170;20.884;2023-05-07T05:29:11;2.80;;;2.40;;
21274;SDS011;36472;52.170;20.884;2023-05-07T05:31:41;3.10;;;2.58;;
21274;SDS011;36472;52.170;20.884;2023-05-07T05:34:12;2.38;;;2.17;;
21274;SDS011;36472;52.170;20.884;2023-05-07T05:36:42;2.95;;;2.25;;
21274;SDS011;36472;52.170;20.884;2023-05-07T05:39:13;2.40;;;2.20;;
21274;SDS011;36472;52.170;20.884;2023-05-07T05:41:42;2.38;;;2.17;;
21274;SDS011;36472;52.170;20.884;2023-05-07T05:44:12;2.20;;;2.00;;
21274;SDS011;36472;52.170;20.884;2023-05-07T05:46:42;2.70;;;2.20;;
21274;SDS011;36472;52.170;20.884;2023-05-07T05:49:13;2.22;;;2.00;;
21274;SDS011;36472;52.170;20.884;2023-05-07T05:51:42;2.30;;;2.10;;
21274;SDS011;36472;52.170;20.884;2023-05-07T05:54:12;2.60;;;2.00;;
21274;SDS011;36472;52.170;20.884;2023-05-07T05:56:42;2.03;;;1.88;;
21274;SDS011;36472;52.170;20.884;2023-05-07T05:59:12;2.20;;;1.98;;
21274;SDS011;36472;52.170;20.884;2023-05-07T06:01:41;2.70;;;1.90;;
21274;SDS011;36472;52.170;20.884;2023-05-07T06:04:12;2.75;;;2.20;;
21274;SDS011;36472;52.170;20.884;2023-05-07T06:06:41;3.78;;;2.40;;
21274;SDS011;36472;52.170;20.884;2023-05-07T06:09:10;2.10;;;1.80;;
21274;SDS011;36472;52.170;20.884;2023-05-07T06:11:42;2.10;;;1.90;;
21274;SDS011;36472;52.170;20.884;2023-05-07T06:14:13;2.67;;;2.20;;
21274;SDS011;36472;52.170;20.884;2023-05-07T06:16:43;2.63;;;1.80;;
21274;SDS011;36472;52.170;20.884;2023-05-07T06:19:13;3.25;;;2.20;;
21274;SDS011;36472;52.170;20.884;2023-05-07T06:21:45;2.50;;;2.20;;
21274;SDS011;36472;52.170;20.884;2023-05-07T06:24:14;2.67;;;2.38;;
21274;SDS011;36472;52.170;20.884;2023-05-07T06:26:43;2.53;;;2.03;;
21274;SDS011;36472;52.170;20.884;2023-05-07T06:29:12;3.08;;;2.40;;
21274;SDS011;36472;52.170;20.884;2023-05-07T06:31:43;5.47;;;2.13;;
21274;SDS011;36472;52.170;20.884;2023-05-07T06:34:11;2.83;;;2.10;;
21274;SDS011;36472;52.170;20.884;2023-05-07T06:36:43;2.83;;;2.03;;
21274;SDS011;36472;52.170;20.884;2023-05-07T06:39:28;2.45;;;2.10;;
21274;SDS011;36472;52.170;20.884;2023-05-07T06:41:57;2.22;;;2.03;;
21274;SDS011;36472;52.170;20.884;2023-05-07T06:44:30;3.33;;;2.05;;
21274;SDS011;36472;52.170;20.884;2023-05-07T06:47:07;2.10;;;1.90;;
21274;SDS011;36472;52.170;20.884;2023-05-07T06:49:39;3.13;;;2.30;;
21274;SDS011;36472;52.170;20.884;2023-05-07T06:52:08;2.70;;;2.28;;
21274;SDS011;36472;52.170;20.884;2023-05-07T06:54:37;5.07;;;2.30;;
21274;SDS011;36472;52.170;20.884;2023-05-07T06:57:07;3.53;;;1.92;;
21274;SDS011;36472;52.170;20.884;2023-05-07T06:59:36;3.20;;;1.88;;
21274;SDS011;36472;52.170;20.884;2023-05-07T07:02:05;3.25;;;2.28;;
21274;SDS011;36472;52.170;20.884;2023-05-07T07:04:35;3.40;;;1.85;;
21274;SDS011;36472;52.170;20.884;2023-05-07T07:07:10;2.00;;;1.90;;
21274;SDS011;36472;52.170;20.884;2023-05-07T07:09:40;1.77;;;1.67;;
21274;SDS011;36472;52.170;20.884;2023-05-07T07:12:10;2.33;;;2.00;;
21274;SDS011;36472;52.170;20.884;2023-05-07T07:14:40;2.20;;;1.92;;
21274;SDS011;36472;52.170;20.884;2023-05-07T07:17:09;2.55;;;1.80;;
21274;SDS011;36472;52.170;20.884;2023-05-07T07:19:38;2.10;;;1.90;;
21274;SDS011;36472;52.170;20.884;2023-05-07T07:22:09;2.58;;;1.80;;
21274;SDS011;36472;52.170;20.884;2023-05-07T07:24:38;2.28;;;2.03;;
21274;SDS011;36472;52.170;20.884;2023-05-07T07:27:09;3.45;;;1.90;;
21274;SDS011;36472;52.170;20.884;2023-05-07T07:29:39;2.97;;;2.10;;
21274;SDS011;36472;52.170;20.884;2023-05-07T07:32:08;2.85;;;2.50;;
21274;SDS011;36472;52.170;20.884;2023-05-07T07:34:37;2.90;;;2.10;;
21274;SDS011;36472;52.170;20.884;2023-05-07T07:37:06;2.25;;;1.90;;
21274;SDS011;36472;52.170;20.884;2023-05-07T07:39:38;2.95;;;2.30;;
21274;SDS011;36472;52.170;20.884;2023-05-07T07:42:08;4.03;;;1.85;;
21274;SDS011;36472;52.170;20.884;2023-05-07T07:44:38;3.17;;;2.05;;
21274;SDS011;36472;52.170;20.884;2023-05-07T07:47:09;2.95;;;2.20;;
21274;SDS011;36472;52.170;20.884;2023-05-07T07:49:40;2.47;;;1.98;;
21274;SDS011;36472;52.170;20.884;2023-05-07T07:52:10;2.75;;;2.10;;
21274;SDS011;36472;52.170;20.884;2023-05-07T07:54:41;4.22;;;2.08;;
21274;SDS011;36472;52.170;20.884;2023-05-07T07:57:10;6.15;;;1.80;;
21274;SDS011;36472;52.170;20.884;2023-05-07T07:59:39;3.20;;;2.15;;
21274;SDS011;36472;52.170;20.884;2023-05-07T08:02:12;3.25;;;2.22;;
21274;SDS011;36472;52.170;20.884;2023-05-07T08:04:41;1.92;;;1.70;;
21274;SDS011;36472;52.170;20.884;2023-05-07T08:07:11;3.88;;;1.70;;
21274;SDS011;36472;52.170;20.884;2023-05-07T08:09:44;4.03;;;2.10;;
21274;SDS011;36472;52.170;20.884;2023-05-07T08:12:16;3.17;;;2.10;;
21274;SDS011;36472;52.170;20.884;2023-05-07T08:14:45;4.70;;;2.20;;
21274;SDS011;36472;52.170;20.884;2023-05-07T08:17:14;4.22;;;2.10;;
21274;SDS011;36472;52.170;20.884;2023-05-07T08:19:45;3.63;;;2.28;;
21274;SDS011;36472;52.170;20.884;2023-05-07T08:22:14;3.15;;;2.40;;
21274;SDS011;36472;52.170;20.884;2023-05-07T08:24:46;1.83;;;1.63;;
21274;SDS011;36472;52.170;20.884;2023-05-07T08:27:15;2.88;;;1.88;;
21274;SDS011;36472;52.170;20.884;2023-05-07T08:29:45;2.40;;;1.90;;
21274;SDS011;36472;52.170;20.884;2023-05-07T08:32:17;3.67;;;2.30;;
21274;SDS011;36472;52.170;20.884;2023-05-07T08:34:46;2.28;;;1.80;;
21274;SDS011;36472;52.170;20.884;2023-05-07T08:37:17;2.22;;;2.03;;
21274;SDS011;36472;52.170;20.884;2023-05-07T08:39:47;2.47;;;2.05;;
21274;SDS011;36472;52.170;20.884;2023-05-07T08:42:20;2.47;;;1.80;;
21274;SDS011;36472;52.170;20.884;2023-05-07T08:44:52;3.00;;;2.20;;
21274;SDS011;36472;52.170;20.884;2023-05-07T08:47:29;3.22;;;2.35;;
21274;SDS011;36472;52.170;20.884;2023-05-07T08:50:13;2.83;;;2.10;;
21274;SDS011;36472;52.170;20.884;2023-05-07T08:52:42;2.78;;;1.75;;
21274;SDS011;36472;52.170;20.884;2023-05-07T08:55:13;2.60;;;1.85;;
21274;SDS011;36472;52.170;20.884;2023-05-07T08:57:44;2.33;;;1.80;;
21274;SDS011;36472;52.170;20.884;2023-05-07T09:00:15;2.65;;;2.00;;
21274;SDS011;36472;52.170;20.884;2023-05-07T09:02:48;5.03;;;1.98;;
21274;SDS011;36472;52.170;20.884;2023-05-07T09:05:17;2.67;;;1.70;;
21274;SDS011;36472;52.170;20.884;2023-05-07T09:07:47;2.55;;;1.85;;
21274;SDS011;36472;52.170;20.884;2023-05-07T09:10:22;2.28;;;1.98;;
21274;SDS011;36472;52.170;20.884;2023-05-07T09:12:51;3.58;;;2.20;;
21274;SDS011;36472;52.170;20.884;2023-05-07T09:15:21;3.45;;;1.70;;
21274;SDS011;36472;52.170;20.884;2023-05-07T09:17:50;2.95;;;2.10;;
21274;SDS011;36472;52.170;20.884;2023-05-07T09:20:19;3.35;;;2.00;;
21274;SDS011;36472;52.170;20.884;2023-05-07T09:22:48;2.08;;;1.60;;
21274;SDS011;36472;52.170;20.884;2023-05-07T09:25:20;2.70;;;1.95;;
21274;SDS011;36472;52.170;20.884;2023-05-07T09:28:04;3.97;;;1.85;;
21274;SDS011;36472;52.170;20.884;2023-05-07T09:30:35;3.67;;;1.90;;
21274;SDS011;36472;52.170;20.884;2023-05-07T09:33:07;2.83;;;2.00;;
21274;SDS011;36472;52.170;20.884;2023-05-07T09:35:39;2.03;;;1.52;;
21274;SDS011;36472;52.170;20.884;2023-05-07T09:38:14;4.20;;;1.42;;
21274;SDS011;36472;52.170;20.884;2023-05-07T09:41:02;2.25;;;1.67;;
21274;SDS011;36472;52.170;20.884;2023-05-07T09:43:37;2.33;;;1.77;;
21274;SDS011;36472;52.170;20.884;2023-05-07T09:46:11;1.83;;;1.60;;
21274;SDS011;36472;52.170;20.884;2023-05-07T09:48:49;2.03;;;1.83;;
21274;SDS011;36472;52.170;20.884;2023-05-07T09:51:28;2.28;;;1.83;;
21274;SDS011;36472;52.170;20.884;2023-05-07T09:54:01;3.53;;;1.60;;
21274;SDS011;36472;52.170;20.884;2023-05-07T09:56:36;3.22;;;2.20;;
21274;SDS011;36472;52.170;20.884;2023-05-07T09:59:05;4.30;;;1.90;;
21274;SDS011;36472;52.170;20.884;2023-05-07T10:01:39;2.67;;;1.98;;
21274;SDS011;36472;52.170;20.884;2023-05-07T10:04:11;2.00;;;1.80;;
21274;SDS011;36472;52.170;20.884;2023-05-07T10:06:43;3.10;;;2.13;;
21274;SDS011;36472;52.170;20.884;2023-05-07T10:09:14;3.15;;;1.70;;
21274;SDS011;36472;52.170;20.884;2023-05-07T10:11:45;4.50;;;1.85;;
21274;SDS011;36472;52.170;20.884;2023-05-07T10:14:20;3.05;;;2.15;;
21274;SDS011;36472;52.170;20.884;2023-05-07T10:16:50;4.22;;;1.90;;
21274;SDS011;36472;52.170;20.884;2023-05-07T10:19:22;2.78;;;1.92;;
21274;SDS011;36472;52.170;20.884;2023-05-07T10:21:54;3.25;;;2.08;;
21274;SDS011;36472;52.170;20.884;2023-05-07T10:24:32;2.80;;;2.00;;
21274;SDS011;36472;52.170;20.884;2023-05-07T10:27:11;3.45;;;1.85;;
21274;SDS011;36472;52.170;20.884;2023-05-07T10:29:50;4.43;;;2.22;;
21274;SDS011;36472;52.170;20.884;2023-05-07T10:32:33;4.07;;;1.67;;
21274;SDS011;36472;52.170;20.884;2023-05-07T10:35:14;3.05;;;1.88;;
21274;SDS011;36472;52.170;20.884;2023-05-07T10:37:48;2.53;;;1.80;;
21274;SDS011;36472;52.170;20.884;2023-05-07T10:40:19;4.30;;;1.92;;
21274;SDS011;36472;52.170;20.884;2023-05-07T10:42:56;2.83;;;2.08;;
21274;SDS011;36472;52.170;20.884;2023-05-07T10:45:32;5.25;;;2.33;;
21274;SDS011;36472;52.170;20.884;2023-05-07T10:48:06;3.17;;;1.83;;
21274;SDS011;36472;52.170;20.884;2023-05-07T10:54:18;3.63;;;2.13;;
21274;SDS011;36472;52.170;20.884;2023-05-07T11:03:19;6.30;;;3.40;;
21274;SDS011;36472;52.170;20.884;2023-05-07T11:08:54;2.53;;;1.83;;
21274;SDS011;36472;52.170;20.884;2023-05-07T11:11:46;2.42;;;1.92;;
21274;SDS011;36472;52.170;20.884;2023-05-07T11:14:44;3.30;;;2.10;;
21274;SDS011;36472;52.170;20.884;2023-05-07T11:17:20;3.20;;;1.90;;
21274;SDS011;36472;52.170;20.884;2023-05-07T11:19:56;2.80;;;2.10;;
21274;SDS011;36472;52.170;20.884;2023-05-07T11:22:36;1.98;;;1.77;;
21274;SDS011;36472;52.170;20.884;2023-05-07T11:25:27;2.92;;;1.98;;
21274;SDS011;36472;52.170;20.884;2023-05-07T11:28:05;4.30;;;2.13;;
21274;SDS011;36472;52.170;20.884;2023-05-07T11:30:42;2.05;;;1.80;;
21274;SDS011;36472;52.170;20.884;2023-05-07T11:33:18;3.65;;;2.17;;
21274;SDS011;36472;52.170;20.884;2023-05-07T11:35:50;2.67;;;1.75;;
21274;SDS011;36472;52.170;20.884;2023-05-07T11:38:25;2.95;;;1.88;;
21274;SDS011;36472;52.170;20.884;2023-05-07T11:40:55;2.90;;;1.73;;
21274;SDS011;36472;52.170;20.884;2023-05-07T11:43:27;2.03;;;1.52;;
21274;SDS011;36472;52.170;20.884;2023-05-07T11:46:04;2.95;;;1.73;;
21274;SDS011;36472;52.170;20.884;2023-05-07T11:48:36;2.42;;;1.90;;
21274;SDS011;36472;52.170;20.884;2023-05-07T11:51:06;2.45;;;1.63;;
21274;SDS011;36472;52.170;20.884;2023-05-07T11:53:39;2.15;;;1.63;;
21274;SDS011;36472;52.170;20.884;2023-05-07T11:56:10;3.05;;;1.77;;
21274;SDS011;36472;52.170;20.884;2023-05-07T11:58:41;3.85;;;1.67;;
21274;SDS011;36472;52.170;20.884;2023-05-07T12:01:12;2.40;;;2.00;;
21274;SDS011;36472;52.170;20.884;2023-05-07T12:03:45;2.40;;;2.20;;
21274;SDS011;36472;52.170;20.884;2023-05-07T12:06:15;4.03;;;1.90;;
21274;SDS011;36472;52.170;20.884;2023-05-07T12:08:45;2.97;;;1.85;;
21274;SDS011;36472;52.170;20.884;2023-05-07T12:11:16;3.75;;;1.70;;
21274;SDS011;36472;52.170;20.884;2023-05-07T12:13:53;1.80;;;1.48;;
21274;SDS011;36472;52.170;20.884;2023-05-07T12:16:25;1.70;;;1.60;;
21274;SDS011;36472;52.170;20.884;2023-05-07T12:18:56;3.10;;;1.70;;
21274;SDS011;36472;52.170;20.884;2023-05-07T12:21:27;2.58;;;1.40;;
21274;SDS011;36472;52.170;20.884;2023-05-07T12:23:56;1.40;;;1.30;;
21274;SDS011;36472;52.170;20.884;2023-05-07T12:26:25;2.78;;;1.65;;
21274;SDS011;36472;52.170;20.884;2023-05-07T12:28:54;2.13;;;1.50;;
21274;SDS011;36472;52.170;20.884;2023-05-07T12:31:25;3.83;;;1.95;;
21274;SDS011;36472;52.170;20.884;2023-05-07T12:33:55;2.55;;;1.80;;
21274;SDS011;36472;52.170;20.884;2023-05-07T12:36:25;2.08;;;1.58;;
21274;SDS011;36472;52.170;20.884;2023-05-07T12:38:54;1.98;;;1.27;;
21274;SDS011;36472;52.170;20.884;2023-05-07T12:41:23;1.55;;;1.45;;
21274;SDS011;36472;52.170;20.884;2023-05-07T12:43:56;2.35;;;1.33;;
21274;SDS011;36472;52.170;20.884;2023-05-07T12:46:25;1.80;;;1.65;;
21274;SDS011;36472;52.170;20.884;2023-05-07T12:48:54;2.42;;;1.60;;
21274;SDS011;36472;52.170;20.884;2023-05-07T12:51:24;1.90;;;1.65;;
21274;SDS011;36472;52.170;20.884;2023-05-07T12:53:55;2.70;;;2.05;;
21274;SDS011;36472;52.170;20.884;2023-05-07T12:56:25;4.10;;;1.40;;
21274;SDS011;36472;52.170;20.884;2023-05-07T12:58:56;1.80;;;1.25;;
21274;SDS011;36472;52.170;20.884;2023-05-07T13:01:28;1.63;;;1.50;;
21274;SDS011;36472;52.170;20.884;2023-05-07T13:04:02;1.98;;;1.60;;
21274;SDS011;36472;52.170;20.884;2023-05-07T13:06:32;3.55;;;1.52;;
21274;SDS011;36472;52.170;20.884;2023-05-07T13:09:01;2.25;;;1.85;;
21274;SDS011;36472;52.170;20.884;2023-05-07T13:11:30;1.42;;;1.30;;
21274;SDS011;36472;52.170;20.884;2023-05-07T13:13:59;1.48;;;1.38;;
21274;SDS011;36472;52.170;20.884;2023-05-07T13:16:28;1.63;;;1.20;;
21274;SDS011;36472;52.170;20.884;2023-05-07T13:18:56;1.55;;;1.45;;
21274;SDS011;36472;52.170;20.884;2023-05-07T13:21:27;3.70;;;1.50;;
21274;SDS011;36472;52.170;20.884;2023-05-07T13:23:57;1.85;;;1.30;;
21274;SDS011;36472;52.170;20.884;2023-05-07T13:26:26;1.85;;;1.63;;
21274;SDS011;36472;52.170;20.884;2023-05-07T13:28:55;2.85;;;1.80;;
21274;SDS011;36472;52.170;20.884;2023-05-07T13:31:24;1.73;;;1.63;;
21274;SDS011;36472;52.170;20.884;2023-05-07T13:33:53;1.92;;;1.45;;
21274;SDS011;36472;52.170;20.884;2023-05-07T13:36:23;2.80;;;1.60;;
21274;SDS011;36472;52.170;20.884;2023-05-07T13:38:53;2.10;;;1.45;;
21274;SDS011;36472;52.170;20.884;2023-05-07T13:41:22;4.07;;;1.60;;
21274;SDS011;36472;52.170;20.884;2023-05-07T13:43:51;2.22;;;1.50;;
21274;SDS011;36472;52.170;20.884;2023-05-07T13:46:20;2.33;;;1.35;;
21274;SDS011;36472;52.170;20.884;2023-05-07T13:48:49;2.28;;;1.60;;
21274;SDS011;36472;52.170;20.884;2023-05-07T13:51:18;3.05;;;1.60;;
21274;SDS011;36472;52.170;20.884;2023-05-07T13:53:48;2.67;;;1.83;;
21274;SDS011;36472;52.170;20.884;2023-05-07T13:56:18;3.30;;;1.75;;
21274;SDS011;36472;52.170;20.884;2023-05-07T13:58:48;2.88;;;1.83;;
21274;SDS011;36472;52.170;20.884;2023-05-07T14:01:26;2.33;;;1.63;;
21274;SDS011;36472;52.170;20.884;2023-05-07T14:03:55;2.55;;;1.52;;
21274;SDS011;36472;52.170;20.884;2023-05-07T14:06:26;2.00;;;1.50;;
21274;SDS011;36472;52.170;20.884;2023-05-07T14:08:55;1.85;;;1.58;;
21274;SDS011;36472;52.170;20.884;2023-05-07T14:11:26;1.95;;;1.73;;
21274;SDS011;36472;52.170;20.884;2023-05-07T14:13:55;3.97;;;1.42;;
21274;SDS011;36472;52.170;20.884;2023-05-07T14:16:25;2.85;;;1.27;;
21274;SDS011;36472;52.170;20.884;2023-05-07T14:18:54;1.65;;;1.33;;
21274;SDS011;36472;52.170;20.884;2023-05-07T14:21:24;2.08;;;1.60;;
21274;SDS011;36472;52.170;20.884;2023-05-07T14:23:53;1.67;;;1.50;;
21274;SDS011;36472;52.170;20.884;2023-05-07T14:26:23;1.60;;;1.50;;
21274;SDS011;36472;52.170;20.884;2023-05-07T14:28:55;2.92;;;1.45;;
21274;SDS011;36472;52.170;20.884;2023-05-07T14:31:25;2.97;;;1.90;;
21274;SDS011;36472;52.170;20.884;2023-05-07T14:33:54;1.63;;;1.40;;
21274;SDS011;36472;52.170;20.884;2023-05-07T14:36:25;2.38;;;1.20;;
21274;SDS011;36472;52.170;20.884;2023-05-07T14:38:53;1.60;;;1.50;;
21274;SDS011;36472;52.170;20.884;2023-05-07T14:41:23;1.70;;;1.48;;
21274;SDS011;36472;52.170;20.884;2023-05-07T14:43:52;3.60;;;1.25;;
21274;SDS011;36472;52.170;20.884;2023-05-07T14:46:22;1.85;;;1.42;;
21274;SDS011;36472;52.170;20.884;2023-05-07T14:48:52;2.38;;;1.45;;
21274;SDS011;36472;52.170;20.884;2023-05-07T14:51:21;2.08;;;1.65;;
21274;SDS011;36472;52.170;20.884;2023-05-07T14:53:50;2.90;;;1.70;;
21274;SDS011;36472;52.170;20.884;2023-05-07T14:56:19;1.48;;;1.38;;
21274;SDS011;36472;52.170;20.884;2023-05-07T14:58:48;2.97;;;1.85;;
21274;SDS011;36472;52.170;20.884;2023-05-07T15:01:19;1.98;;;1.40;;
21274;SDS011;36472;52.170;20.884;2023-05-07T15:03:49;3.15;;;1.67;;
21274;SDS011;36472;52.170;20.884;2023-05-07T15:06:18;2.50;;;1.90;;
21274;SDS011;36472;52.170;20.884;2023-05-07T15:08:46;2.70;;;1.77;;